Archival Weather

Norman Y Mineta San Jose Intl

San Jose, California (KSJC)

Report from: Wednesday, April 3, 2024 10:28 PM PDT
Current time: Tuesday, May 21, 2024 10:18 AM PDT

Current weather – Weather history – Daily summaries
Weather forecast

Temperature11.7°C (53.1°F)
Dew point4.4°C (39.9°F)
Winds 11 kts (5.7 m/s, 12.7 mph) West-Northwest (300°)
Visibility10 mi. (16.1 km)
Clouds Ceiling: Overcast 3,700 ft. (1,128 m)
Altimeter30.03 in.Hg (1017 mB)
Relative humidity61 %
Density altitude-394 ft. (-120 m)
Remarks Automated weather observing station with precipitation discriminator
Flight conditions Visual Meteorological Conditions
Raw dataKSJC 040528Z 30011KT 10SM OVC037 12/04 A3003 RMK AO2 T01170044
An error has occurred. This application may no longer respond until reloaded. Reload 🗙